Terminal Aerodrome Forecast
Issued by NWS

Home | Current Version | Previous Version | Text Only | Print | Product List | Glossary On
Versions: 1 2 3 4 5 6 7 8 9 10 11 12 13 14 15 16 17 18 19 20 21 22 23
000
FTUS43 KABR 202109 AAC
TAFATY
TAF AMD
KATY 202109Z 2021/2118 30013G22KT P6SM SCT010 BKN025
     FM202200 31012G20KT P6SM SCT025
     FM210100 28011KT P6SM FEW150
     FM210500 23005KT 5SM BR FEW200
     FM211400 19010KT P6SM FEW200
     FM211600 20011KT P6SM FEW250=

USA.gov is the U.S. government's official web portal to all federal, state and local government web resources and services.